createdAt,value
2023-04-14T00:00:58.729Z,8.82
2023-04-14T00:03:44.398Z,8.83
2023-04-14T00:06:30.873Z,9.16
2023-04-14T00:09:16.648Z,9.23
2023-04-14T00:12:01.915Z,8.87
2023-04-14T00:14:49.234Z,9.28
2023-04-14T00:17:34.618Z,9.05
2023-04-14T00:20:20.120Z,8.81
2023-04-14T00:23:05.757Z,8.40
2023-04-14T00:25:51.274Z,7.82
2023-04-14T00:28:36.549Z,9.01
2023-04-14T00:31:22.046Z,7.68
2023-04-14T00:34:07.883Z,7.74
2023-04-14T00:36:53.381Z,8.81
2023-04-14T00:39:38.830Z,8.18
2023-04-14T00:42:24.116Z,8.67
2023-04-14T00:45:09.721Z,7.48
2023-04-14T00:47:55.863Z,7.78
2023-04-14T00:50:42.474Z,8.12
2023-04-14T00:53:28.825Z,7.49
2023-04-14T00:56:15.378Z,8.11
2023-04-14T00:59:02.129Z,6.92
2023-04-14T01:01:48.114Z,6.97
2023-04-14T01:04:49.635Z,6.85
2023-04-14T01:07:38.739Z,6.64
2023-04-14T01:10:31.046Z,6.81
2023-04-14T01:13:24.158Z,6.82
2023-04-14T01:16:17.967Z,8.15
2023-04-14T01:19:25.310Z,7.56
2023-04-14T01:22:13.602Z,7.14
2023-04-14T01:25:36.800Z,7.43
2023-04-14T01:29:04.231Z,8.03
2023-04-14T01:32:01.172Z,8.23
2023-04-14T01:35:00.629Z,7.68
2023-04-14T01:37:49.841Z,7.90
2023-04-14T01:40:37.365Z,7.70
2023-04-14T01:43:26.856Z,7.75
2023-04-14T01:46:15.827Z,7.52
2023-04-14T01:49:03.035Z,7.62
2023-04-14T01:51:49.039Z,7.39
2023-04-14T01:54:37.205Z,6.04
2023-04-14T01:57:26.555Z,7.35
2023-04-14T02:00:12.943Z,7.23
2023-04-14T02:03:03.046Z,6.89
2023-04-14T02:05:52.376Z,5.90
2023-04-14T02:08:41.266Z,7.13
2023-04-14T02:11:29.626Z,6.24
2023-04-14T02:14:19.208Z,5.68
2023-04-14T02:17:07.654Z,6.69
2023-04-14T02:19:55.005Z,6.68
2023-04-14T02:22:40.705Z,5.57
2023-04-14T02:25:32.248Z,5.92
2023-04-14T02:28:21.672Z,7.08
2023-04-14T02:31:10.224Z,5.64
2023-04-14T02:33:57.995Z,6.68
2023-04-14T02:36:52.488Z,6.99
2023-04-14T02:39:45.352Z,6.96
2023-04-14T02:42:32.213Z,5.89
2023-04-14T02:45:26.271Z,6.82
2023-04-14T02:48:15.949Z,6.83
2023-04-14T02:51:03.611Z,7.13
2023-04-14T02:53:50.769Z,6.46
2023-04-14T02:56:52.848Z,7.20
2023-04-14T02:59:44.800Z,7.14
2023-04-14T03:02:33.061Z,7.05
2023-04-14T03:05:24.539Z,7.00
2023-04-14T03:08:18.522Z,7.03
2023-04-14T03:11:08.273Z,6.72
2023-04-14T03:13:56.364Z,5.88
2023-04-14T03:16:43.707Z,6.05
2023-04-14T03:19:29.722Z,6.65
2023-04-14T03:22:17.961Z,6.55
2023-04-14T03:25:03.597Z,7.03
2023-04-14T03:27:52.382Z,6.27
2023-04-14T03:30:44.055Z,5.84
2023-04-14T03:33:32.426Z,5.71
2023-04-14T03:36:20.878Z,5.69
2023-04-14T03:39:08.171Z,6.64
2023-04-14T03:41:57.237Z,5.48
2023-04-14T03:44:49.950Z,6.11
2023-04-14T03:47:36.354Z,6.50
2023-04-14T03:50:23.134Z,6.41
2023-04-14T03:53:12.805Z,5.44
2023-04-14T03:56:00.003Z,6.48
2023-04-14T03:58:47.336Z,6.65
2023-04-14T04:01:36.989Z,6.61
2023-04-14T04:04:24.362Z,6.69
2023-04-14T04:07:13.564Z,6.75
2023-04-14T04:10:00.619Z,5.67
2023-04-14T04:12:48.742Z,6.08
2023-04-14T04:15:35.772Z,6.52
2023-04-14T04:18:22.824Z,6.49
2023-04-14T04:21:10.701Z,5.44
2023-04-14T04:23:58.759Z,6.81
2023-04-14T04:26:44.463Z,6.37
2023-04-14T04:29:30.368Z,5.55
2023-04-14T04:32:17.110Z,5.53
2023-04-14T04:35:05.044Z,5.85
2023-04-14T04:37:51.662Z,6.43
2023-04-14T04:40:41.046Z,7.32
2023-04-14T04:43:34.267Z,7.49
2023-04-14T04:46:48.600Z,7.60
2023-04-14T04:49:34.929Z,6.40
2023-04-14T04:52:22.171Z,7.61
2023-04-14T04:55:08.823Z,6.83
2023-04-14T04:57:54.240Z,7.70
2023-04-14T05:00:39.933Z,6.98
2023-04-14T05:03:25.799Z,7.28
2023-04-14T05:06:11.294Z,8.08
2023-04-14T05:08:57.714Z,8.72
2023-04-14T05:11:43.444Z,8.53
2023-04-14T05:14:29.309Z,8.93
2023-04-14T05:17:14.667Z,9.34
2023-04-14T05:20:03.607Z,9.80
2023-04-14T05:22:49.611Z,9.39
2023-04-14T05:25:36.089Z,10.47
2023-04-14T05:28:24.035Z,10.77
2023-04-14T05:31:10.639Z,11.07
2023-04-14T05:33:57.362Z,10.85
2023-04-14T05:36:43.014Z,10.49
2023-04-14T05:39:28.545Z,11.93
2023-04-14T05:42:14.017Z,11.34
2023-04-14T05:44:59.424Z,12.28
2023-04-14T05:47:46.272Z,12.84
2023-04-14T05:50:37.564Z,12.35
2023-04-14T05:53:23.738Z,13.08
2023-04-14T05:56:11.609Z,12.80
2023-04-14T05:59:02.660Z,13.47
2023-04-14T06:01:49.056Z,13.63
2023-04-14T06:04:34.831Z,12.77
2023-04-14T06:07:20.975Z,13.92
2023-04-14T06:10:08.724Z,14.12
2023-04-14T06:12:54.836Z,13.92
2023-04-14T06:15:40.965Z,13.82
2023-04-14T06:18:26.811Z,14.06
2023-04-14T06:21:12.649Z,13.69
2023-04-14T06:23:58.202Z,14.35
2023-04-14T06:26:43.804Z,13.87
2023-04-14T06:29:29.413Z,13.74
2023-04-14T06:32:15.157Z,13.91
2023-04-14T06:35:01.477Z,15.08
2023-04-14T06:37:47.300Z,15.21
2023-04-14T06:40:35.929Z,15.27
2023-04-14T06:43:30.291Z,14.35
2023-04-14T06:46:17.281Z,15.17
2023-04-14T06:49:03.964Z,15.57
2023-04-14T06:51:49.269Z,15.30
2023-04-14T06:54:36.182Z,15.11
2023-04-14T06:57:21.635Z,15.81
2023-04-14T07:00:09.471Z,15.06
2023-04-14T07:02:55.092Z,15.63
2023-04-14T07:05:41.047Z,16.04
2023-04-14T07:08:31.980Z,15.98
2023-04-14T07:11:17.326Z,16.08
2023-04-14T07:14:02.909Z,14.99
2023-04-14T07:16:48.495Z,15.18
2023-04-14T07:19:33.934Z,14.88
2023-04-14T07:22:19.400Z,15.90
2023-04-14T07:25:05.012Z,15.43
2023-04-14T07:28:02.653Z,15.89
2023-04-14T07:30:50.149Z,15.66
2023-04-14T07:33:36.400Z,15.96
2023-04-14T07:36:22.240Z,15.91
2023-04-14T07:39:08.061Z,14.91
2023-04-14T07:41:53.666Z,15.08
2023-04-14T07:44:39.066Z,16.16
2023-04-14T07:47:24.632Z,15.09
2023-04-14T07:50:10.955Z,16.09
2023-04-14T07:52:56.544Z,16.40
2023-04-14T07:55:42.183Z,15.34
2023-04-14T07:58:29.266Z,15.47
2023-04-14T08:01:15.692Z,15.55
2023-04-14T08:04:01.435Z,15.89
2023-04-14T08:06:46.992Z,16.69
2023-04-14T08:09:32.569Z,16.68
2023-04-14T08:12:18.144Z,15.78
2023-04-14T08:15:03.661Z,15.70
2023-04-14T08:17:49.705Z,16.52
2023-04-14T08:20:35.112Z,15.60
2023-04-14T08:23:21.300Z,16.46
2023-04-14T08:26:07.174Z,16.45
2023-04-14T08:28:52.464Z,16.40
2023-04-14T08:31:38.095Z,16.43
2023-04-14T08:34:28.134Z,16.33
2023-04-14T08:37:14.314Z,16.35
2023-04-14T08:39:59.806Z,16.51
2023-04-14T08:42:46.043Z,16.50
2023-04-14T08:45:34.903Z,16.07
2023-04-14T08:48:22.979Z,16.63
2023-04-14T08:51:34.269Z,16.90
2023-04-14T08:54:21.602Z,16.46
2023-04-14T08:57:12.347Z,16.77
2023-04-14T08:59:58.709Z,16.00
2023-04-14T09:02:44.904Z,16.82
2023-04-14T09:05:30.583Z,17.01
2023-04-14T09:08:16.880Z,17.13
2023-04-14T09:11:03.780Z,17.06
2023-04-14T09:13:50.048Z,16.34
2023-04-14T09:16:36.141Z,15.97
2023-04-14T09:19:26.141Z,16.16
2023-04-14T09:22:12.059Z,16.37
2023-04-14T09:24:58.556Z,16.20
2023-04-14T09:27:44.445Z,17.20
2023-04-14T09:30:31.852Z,16.43
2023-04-14T09:36:18.598Z,17.16
2023-04-14T09:39:16.945Z,16.72
2023-04-14T09:42:04.177Z,16.93
2023-04-14T09:44:54.874Z,16.24
2023-04-14T09:47:40.394Z,16.99
2023-04-14T09:50:25.574Z,16.21
2023-04-14T09:53:11.499Z,15.99
2023-04-14T09:56:00.022Z,16.67
2023-04-14T09:58:46.288Z,17.13
2023-04-14T10:01:34.440Z,16.23
2023-04-14T10:04:24.002Z,17.03
2023-04-14T10:07:12.219Z,16.97
2023-04-14T10:09:58.136Z,16.93
2023-04-14T10:12:44.612Z,16.21
2023-04-14T10:15:31.152Z,16.04
2023-04-14T10:18:16.713Z,16.37
2023-04-14T10:21:03.610Z,17.02
2023-04-14T10:23:49.261Z,16.85
2023-04-14T10:26:36.399Z,17.08
2023-04-14T10:29:22.503Z,17.17
2023-04-14T10:32:13.460Z,16.43
2023-04-14T10:35:02.174Z,17.51
2023-04-14T10:37:52.092Z,17.50
2023-04-14T10:40:48.305Z,17.30
2023-04-14T10:43:36.637Z,16.73
2023-04-14T10:46:22.962Z,17.14
2023-04-14T10:49:12.324Z,17.34
2023-04-14T10:52:16.653Z,16.54
2023-04-14T10:55:09.443Z,17.15
2023-04-14T10:58:08.884Z,16.41
2023-04-14T11:00:57.081Z,17.02
2023-04-14T11:03:46.135Z,16.45
2023-04-14T11:06:47.457Z,17.37
2023-04-14T11:09:38.023Z,17.40
2023-04-14T11:12:26.325Z,16.34
2023-04-14T11:15:12.179Z,17.37
2023-04-14T11:18:12.383Z,17.13
2023-04-14T11:21:06.217Z,17.13
2023-04-14T11:23:52.000Z,17.26
2023-04-14T11:26:37.323Z,17.05
2023-04-14T11:29:23.100Z,16.25
2023-04-14T11:32:09.136Z,16.68
2023-04-14T11:34:54.669Z,17.23
2023-04-14T11:37:41.171Z,17.32
2023-04-14T11:40:30.932Z,17.29
2023-04-14T11:43:17.973Z,17.29
2023-04-14T11:46:09.672Z,17.18
2023-04-14T11:48:58.672Z,17.23
2023-04-14T11:51:45.553Z,16.97
2023-04-14T11:54:39.980Z,17.19
2023-04-14T11:57:31.547Z,17.06
2023-04-14T12:00:18.556Z,17.23
2023-04-14T12:03:05.302Z,16.97
2023-04-14T12:05:56.873Z,16.95
2023-04-14T12:08:43.842Z,16.23
2023-04-14T12:11:29.642Z,17.32
2023-04-14T12:14:16.321Z,17.39
2023-04-14T12:17:03.237Z,17.38
2023-04-14T12:19:51.660Z,16.15
2023-04-14T12:22:37.367Z,16.93
2023-04-14T12:25:23.413Z,17.32
2023-04-14T12:28:09.266Z,16.26
2023-04-14T12:31:01.085Z,17.11
2023-04-14T12:33:47.670Z,17.30
2023-04-14T12:36:49.030Z,15.65
2023-04-14T12:39:51.143Z,17.27
2023-04-14T12:42:54.113Z,17.29
2023-04-14T12:45:43.662Z,17.31
2023-04-14T12:48:48.476Z,16.91
2023-04-14T12:51:40.162Z,16.83
2023-04-14T12:54:25.837Z,17.24
2023-04-14T12:57:12.438Z,17.03
2023-04-14T12:59:59.576Z,17.23
2023-04-14T13:02:46.449Z,17.14
2023-04-14T13:05:32.592Z,16.87
2023-04-14T13:08:17.975Z,16.17
2023-04-14T13:11:03.626Z,16.12
2023-04-14T13:13:49.470Z,16.91
2023-04-14T13:16:35.174Z,16.80
2023-04-14T13:19:20.875Z,16.74
2023-04-14T13:22:06.461Z,16.74
2023-04-14T13:24:51.930Z,16.66
2023-04-14T13:27:37.418Z,16.51
2023-04-14T13:30:22.661Z,16.70
2023-04-14T13:33:11.375Z,15.79
2023-04-14T13:35:57.365Z,16.71
2023-04-14T13:38:42.965Z,15.72
2023-04-14T13:41:28.350Z,16.53
2023-04-14T13:44:13.735Z,15.69
2023-04-14T13:46:59.011Z,16.70
2023-04-14T13:49:44.586Z,16.69
2023-04-14T13:52:30.585Z,16.63
2023-04-14T13:55:19.150Z,15.58
2023-04-14T13:58:04.580Z,16.56
2023-04-14T14:00:50.027Z,16.64
2023-04-14T14:03:35.643Z,15.40
2023-04-14T14:06:22.544Z,16.62
2023-04-14T14:09:09.255Z,15.60
2023-04-14T14:11:58.266Z,16.62
2023-04-14T14:14:44.575Z,16.39
2023-04-14T14:17:30.047Z,16.59
2023-04-14T14:20:15.355Z,16.55
2023-04-14T14:23:01.137Z,16.31
2023-04-14T14:25:46.907Z,15.54
2023-04-14T14:28:32.534Z,16.30
2023-04-14T14:31:18.649Z,16.50
2023-04-14T14:34:04.533Z,16.00
2023-04-14T14:36:50.437Z,15.26
2023-04-14T14:39:36.336Z,15.58
2023-04-14T14:42:21.878Z,15.44
2023-04-14T14:45:09.377Z,15.48
2023-04-14T14:47:54.673Z,16.32
2023-04-14T14:50:41.777Z,16.25
2023-04-14T14:53:27.711Z,15.34
2023-04-14T14:56:13.704Z,16.13
2023-04-14T14:58:59.144Z,15.16
2023-04-14T15:01:44.846Z,16.16
2023-04-14T15:04:30.211Z,15.25
2023-04-14T15:07:15.963Z,15.33
2023-04-14T15:10:03.553Z,16.23
2023-04-14T15:12:49.160Z,16.25
2023-04-14T15:15:35.133Z,15.64
2023-04-14T15:18:21.174Z,15.83
2023-04-14T15:21:06.991Z,16.20
2023-04-14T15:23:52.511Z,15.98
2023-04-14T15:26:38.841Z,14.89
2023-04-14T15:29:27.154Z,16.15
2023-04-14T15:32:12.923Z,15.58
2023-04-14T15:34:59.033Z,15.76
2023-04-14T15:37:44.526Z,16.01
2023-04-14T15:40:30.105Z,15.88
2023-04-14T15:43:16.247Z,15.95
2023-04-14T15:46:01.890Z,14.59
2023-04-14T15:48:47.795Z,15.81
2023-04-14T15:51:33.234Z,14.81
2023-04-14T15:54:18.967Z,15.61
2023-04-14T15:57:04.675Z,15.64
2023-04-14T15:59:50.130Z,14.48
2023-04-14T16:02:36.371Z,14.43
2023-04-14T16:05:22.071Z,15.49
2023-04-14T16:08:07.697Z,15.01
2023-04-14T16:10:53.581Z,15.40
2023-04-14T16:13:39.143Z,15.33
2023-04-14T16:16:25.116Z,15.25
2023-04-14T16:19:11.966Z,15.13
2023-04-14T16:21:57.986Z,14.69
2023-04-14T16:24:43.276Z,13.78
2023-04-14T16:27:29.429Z,14.27
2023-04-14T16:30:15.291Z,14.86
2023-04-14T16:33:06.072Z,14.81
2023-04-14T16:36:02.994Z,14.75
2023-04-14T16:38:51.027Z,14.69
2023-04-14T16:41:36.327Z,14.56
2023-04-14T16:44:21.832Z,14.54
2023-04-14T16:47:13.378Z,14.50
2023-04-14T16:50:00.971Z,14.04
2023-04-14T16:52:47.027Z,14.01
2023-04-14T16:55:35.434Z,14.27
2023-04-14T16:58:21.590Z,14.22
2023-04-14T17:01:07.534Z,14.14
2023-04-14T17:03:53.235Z,13.07
2023-04-14T17:06:39.119Z,12.98
2023-04-14T17:09:25.102Z,13.95
2023-04-14T17:12:11.040Z,13.84
2023-04-14T17:14:57.614Z,13.54
2023-04-14T17:17:43.375Z,12.57
2023-04-14T17:20:29.415Z,13.34
2023-04-14T17:23:16.162Z,13.48
2023-04-14T17:26:01.743Z,12.52
2023-04-14T17:28:47.293Z,13.42
2023-04-14T17:31:33.022Z,13.24
2023-04-14T17:34:19.295Z,11.43
2023-04-14T17:37:05.072Z,13.35
2023-04-14T17:39:52.996Z,12.40
2023-04-14T17:42:38.837Z,12.06
2023-04-14T17:45:24.273Z,13.20
2023-04-14T17:48:10.357Z,13.23
2023-04-14T17:50:57.037Z,13.20
2023-04-14T17:53:45.621Z,13.16
2023-04-14T17:56:33.365Z,13.09
2023-04-14T17:59:20.822Z,11.88
2023-04-14T18:02:08.882Z,12.80
2023-04-14T18:04:54.772Z,12.97
2023-04-14T18:07:42.633Z,12.95
2023-04-14T18:10:32.470Z,12.94
2023-04-14T18:13:21.796Z,12.94
2023-04-14T18:16:10.699Z,12.93
2023-04-14T18:18:57.964Z,12.91
2023-04-14T18:21:49.162Z,12.89
2023-04-14T18:24:48.688Z,12.84
2023-04-14T18:30:29.279Z,12.35
2023-04-14T18:33:16.649Z,12.65
2023-04-14T18:36:06.411Z,12.69
2023-04-14T18:38:56.736Z,12.61
2023-04-14T18:41:43.899Z,12.54
2023-04-14T18:44:29.535Z,12.56
2023-04-14T18:47:15.862Z,12.10
2023-04-14T18:50:01.443Z,11.36
2023-04-14T18:52:47.117Z,12.38
2023-04-14T18:55:41.361Z,11.19
2023-04-14T18:58:31.180Z,11.94
2023-04-14T19:01:17.674Z,12.01
2023-04-14T19:04:03.353Z,12.18
2023-04-14T19:06:49.310Z,12.08
2023-04-14T19:09:36.203Z,12.04
2023-04-14T19:12:28.144Z,12.17
2023-04-14T19:15:14.508Z,12.12
2023-04-14T19:18:01.078Z,10.97
2023-04-14T19:20:47.813Z,12.10
2023-04-14T19:23:33.320Z,12.08
2023-04-14T19:26:19.437Z,11.39
2023-04-14T19:29:05.191Z,10.89
2023-04-14T19:31:50.434Z,11.98
2023-04-14T19:34:36.033Z,11.01
2023-04-14T19:37:21.298Z,10.77
2023-04-14T19:40:08.199Z,11.08
2023-04-14T19:42:55.379Z,11.76
2023-04-14T19:45:52.088Z,11.70
2023-04-14T19:48:37.768Z,11.82
2023-04-14T19:51:23.069Z,11.36
2023-04-14T19:54:08.837Z,11.71
2023-04-14T19:56:54.478Z,11.57
2023-04-14T19:59:40.082Z,10.55
2023-04-14T20:02:28.236Z,10.49
2023-04-14T20:05:15.898Z,10.94
2023-04-14T20:08:01.210Z,10.89
2023-04-14T20:10:50.952Z,11.44
2023-04-14T20:13:38.158Z,10.41
2023-04-14T20:16:28.006Z,11.57
2023-04-14T20:19:27.315Z,11.53
2023-04-14T20:22:14.552Z,11.43
2023-04-14T20:25:00.294Z,11.50
2023-04-14T20:27:46.452Z,11.48
2023-04-14T20:30:32.584Z,10.53
2023-04-14T20:33:18.720Z,10.18
2023-04-14T20:36:04.249Z,8.24
2023-04-14T20:38:49.657Z,10.23
2023-04-14T20:41:36.359Z,10.30
2023-04-14T20:44:22.313Z,10.28
2023-04-14T20:47:08.302Z,11.19
2023-04-14T20:49:54.047Z,10.82
2023-04-14T20:52:40.456Z,11.35
2023-04-14T20:55:26.208Z,11.37
2023-04-14T20:58:11.917Z,10.08
2023-04-14T21:00:57.689Z,11.30
2023-04-14T21:03:43.956Z,10.77
2023-04-14T21:06:31.680Z,9.60
2023-04-14T21:09:18.748Z,9.82
2023-04-14T21:12:15.383Z,10.84
2023-04-14T21:15:47.623Z,11.08
2023-04-14T21:18:11.165Z,11.05
2023-04-14T21:20:56.711Z,11.02
2023-04-14T21:23:42.335Z,11.02
2023-04-14T21:26:28.665Z,9.84
2023-04-14T21:29:14.109Z,9.94
2023-04-14T21:31:59.766Z,9.68
2023-04-14T21:34:46.107Z,10.00
2023-04-14T21:37:32.791Z,10.87
2023-04-14T21:40:18.131Z,10.23
2023-04-14T21:43:03.581Z,9.64
2023-04-14T21:45:50.039Z,9.97
2023-04-14T21:48:35.752Z,10.93
2023-04-14T21:51:21.867Z,10.56
2023-04-14T21:56:36.571Z,10.92
2023-04-14T21:59:22.756Z,10.92
2023-04-14T22:02:09.354Z,10.90
2023-04-14T22:04:54.773Z,10.62
2023-04-14T22:07:41.286Z,9.95
2023-04-14T22:10:32.035Z,9.93
2023-04-14T22:13:17.989Z,10.85
2023-04-14T22:16:03.781Z,10.81
2023-04-14T22:18:49.435Z,9.64
2023-04-14T22:21:34.930Z,9.82
2023-04-14T22:24:20.473Z,10.54
2023-04-14T22:27:06.500Z,10.22
2023-04-14T22:29:52.318Z,10.39
2023-04-14T22:32:37.910Z,9.61
2023-04-14T22:35:23.345Z,10.72
2023-04-14T22:38:08.862Z,10.44
2023-04-14T22:40:54.476Z,9.66
2023-04-14T22:43:40.155Z,10.75
2023-04-14T22:46:25.893Z,9.67
2023-04-14T22:49:11.605Z,10.79
2023-04-14T22:51:57.321Z,10.51
2023-04-14T22:54:42.585Z,10.03
2023-04-14T22:57:28.263Z,10.27
2023-04-14T23:00:16.186Z,10.31
2023-04-14T23:03:02.966Z,9.62
2023-04-14T23:05:48.787Z,10.85
2023-04-14T23:08:34.182Z,10.85
2023-04-14T23:11:21.115Z,9.78
2023-04-14T23:14:07.180Z,10.84
2023-04-14T23:16:52.621Z,10.78
2023-04-14T23:19:38.488Z,10.86
2023-04-14T23:22:24.617Z,10.22
2023-04-14T23:25:10.710Z,9.70
2023-04-14T23:27:56.380Z,9.67
2023-04-14T23:30:45.289Z,10.78
2023-04-14T23:33:31.087Z,10.80
2023-04-14T23:36:16.732Z,10.78
2023-04-14T23:39:02.512Z,9.56
2023-04-14T23:41:48.058Z,10.30
2023-04-14T23:44:33.684Z,10.70
2023-04-14T23:47:19.492Z,10.74
2023-04-14T23:50:05.501Z,10.43
2023-04-14T23:52:51.372Z,9.57
2023-04-14T23:55:37.311Z,8.99
2023-04-14T23:58:26.835Z,10.51
